Time;durP1;ratioP1;P1;durP2;ratioP2;P2;SDS_P1;SDS_P2;PMS_P1;PMS_P2;Temp;Humidity;BMP_temperature;BMP_pressure;BME280_temperature;BME280_humidity;BME280_pressure;Samples;Min_cycle;Max_cycle;Signal;HPM_P1;HPM_P2
2022/04/13 00:01:12;;;;;;;;;;;18.50;53.40;;;;;;5021966;28;19913;-58
2022/04/13 00:03:37;;;;;;;;;;;18.50;53.50;;;;;;5022325;28;19914;-60
2022/04/13 00:06:02;;;;;;;;;;;18.50;53.50;;;;;;5021523;28;20580;-60
2022/04/13 00:08:28;;;;;;;;;;;18.50;53.50;;;;;;5020272;28;19958;-58
2022/04/13 00:10:53;;;;;;;;;;;18.50;53.50;;;;;;5022490;28;19913;-58
2022/04/13 00:13:19;;;;;;;;;;;18.50;53.50;;;;;;5021264;28;19924;-59
2022/04/13 00:15:44;;;;;;;;;;;18.50;53.50;;;;;;5021801;28;19996;-59
2022/04/13 00:18:10;;;;;;;;;;;18.50;53.60;;;;;;5021874;28;20301;-56
2022/04/13 00:20:35;;;;;;;;;;;18.50;53.60;;;;;;5020262;28;19974;-59
2022/04/13 00:23:01;;;;;;;;;;;18.50;53.50;;;;;;5022165;28;20685;-57
2022/04/13 00:25:28;;;;;;;;;;;18.50;53.50;;;;;;5021316;28;19937;-59
2022/04/13 00:27:53;;;;;;;;;;;18.50;53.50;;;;;;5022163;28;19913;-57
2022/04/13 00:30:19;;;;;;;;;;;18.50;53.50;;;;;;5021361;28;19924;-59
2022/04/13 00:32:44;;;;;;;;;;;18.50;53.50;;;;;;5022591;28;20552;-56
2022/04/13 00:35:10;;;;;;;;;;;18.50;53.50;;;;;;5021000;28;20448;-59
2022/04/13 00:37:37;;;;;;;;;;;18.50;53.60;;;;;;5022157;28;19980;-60
2022/04/13 00:40:02;;;;;;;;;;;18.50;53.50;;;;;;5020204;28;20630;-59
2022/04/13 00:42:29;;;;;;;;;;;18.50;53.50;;;;;;5026527;28;19925;-57
2022/04/13 00:44:54;;;;;;;;;;;18.50;53.50;;;;;;5022023;28;19913;-58
2022/04/13 00:47:19;;;;;;;;;;;18.50;53.60;;;;;;5021226;28;20348;-58
2022/04/13 00:49:45;;;;;;;;;;;18.50;53.50;;;;;;5017734;28;19921;-59
2022/04/13 00:52:11;;;;;;;;;;;18.50;53.50;;;;;;5020242;28;19917;-60
2022/04/13 00:54:36;;;;;;;;;;;18.50;53.50;;;;;;5020842;28;19940;-60
2022/04/13 00:57:06;;;;;;;;;;;18.50;53.50;;;;;;5020263;28;19971;-59
2022/04/13 00:59:31;;;;;;;;;;;18.50;53.50;;;;;;5020767;28;19925;-59
2022/04/13 01:01:57;;;;;;;;;;;18.50;53.50;;;;;;5023396;28;19921;-60
2022/04/13 01:04:22;;;;;;;;;;;18.50;53.50;;;;;;5024231;28;19918;-58
2022/04/13 01:06:47;;;;;;;;;;;18.50;53.50;;;;;;5024811;28;19925;-58
2022/04/13 01:09:13;;;;;;;;;;;18.50;53.50;;;;;;5023042;28;20301;-60
2022/04/13 01:11:39;;;;;;;;;;;18.50;53.50;;;;;;5024995;28;19913;-58
2022/04/13 01:14:04;;;;;;;;;;;18.50;53.50;;;;;;5025212;28;19918;-56
2022/04/13 01:16:30;;;;;;;;;;;18.50;53.50;;;;;;5023386;28;19922;-58
2022/04/13 01:18:55;;;;;;;;;;;18.50;53.40;;;;;;5020954;28;20385;-60
2022/04/13 01:22:03;;;;;;;;;;;18.50;53.50;;;;;;5024804;28;19975;-59
2022/04/13 01:24:29;;;;;;;;;;;18.50;53.60;;;;;;5001252;28;20481;-57
2022/04/13 01:26:55;;;;;;;;;;;18.50;53.50;;;;;;5020741;28;20638;-55
2022/04/13 01:29:20;;;;;;;;;;;18.40;53.40;;;;;;5023011;28;19921;-58
2022/04/13 01:31:46;;;;;;;;;;;18.50;53.40;;;;;;5023816;28;19929;-58
2022/04/13 01:34:13;;;;;;;;;;;18.50;53.50;;;;;;5024602;28;19917;-60
2022/04/13 01:36:38;;;;;;;;;;;18.50;53.40;;;;;;5023233;28;20294;-58
2022/04/13 01:39:04;;;;;;;;;;;18.50;53.40;;;;;;5023523;28;19924;-59
2022/04/13 01:41:29;;;;;;;;;;;18.40;53.40;;;;;;5025119;28;19983;-58
2022/04/13 01:43:55;;;;;;;;;;;18.40;53.40;;;;;;5024106;28;19961;-60
2022/04/13 01:46:21;;;;;;;;;;;18.50;53.40;;;;;;5024528;28;19913;-59
2022/04/13 01:48:46;;;;;;;;;;;18.40;53.40;;;;;;5023137;28;19921;-58
2022/04/13 01:51:12;;;;;;;;;;;18.40;53.30;;;;;;5031459;28;19959;-57
2022/04/13 01:53:37;;;;;;;;;;;18.40;53.40;;;;;;5036586;28;19924;-61
2022/04/13 01:56:02;;;;;;;;;;;18.50;53.40;;;;;;5031224;28;19924;-57
2022/04/13 01:58:28;;;;;;;;;;;18.50;53.50;;;;;;5023546;28;20307;-59
2022/04/13 02:00:54;;;;;;;;;;;18.50;53.40;;;;;;5024036;28;19913;-58
2022/04/13 02:03:20;;;;;;;;;;;18.40;53.30;;;;;;5024635;28;19924;-58
2022/04/13 02:05:46;;;;;;;;;;;18.50;53.40;;;;;;5024708;28;20008;-58
2022/04/13 02:08:11;;;;;;;;;;;18.50;53.40;;;;;;5023949;28;20004;-60
2022/04/13 02:10:37;;;;;;;;;;;18.50;53.40;;;;;;5023545;28;19924;-58
2022/04/13 02:13:02;;;;;;;;;;;18.40;53.40;;;;;;5023658;28;21710;-58
2022/04/13 02:15:28;;;;;;;;;;;18.40;53.40;;;;;;5023765;28;19917;-61
2022/04/13 02:17:53;;;;;;;;;;;18.40;53.40;;;;;;5024153;28;20081;-58
2022/04/13 02:20:19;;;;;;;;;;;18.40;53.40;;;;;;5023012;28;19924;-58
2022/04/13 02:22:47;;;;;;;;;;;18.40;53.40;;;;;;5024234;28;20417;-59
2022/04/13 02:25:13;;;;;;;;;;;18.40;53.40;;;;;;5024098;28;19913;-61
2022/04/13 02:27:38;;;;;;;;;;;18.50;53.40;;;;;;5022185;28;19925;-57
2022/04/13 02:30:04;;;;;;;;;;;18.40;53.40;;;;;;5022532;28;19921;-59
2022/04/13 02:32:29;;;;;;;;;;;18.40;53.40;;;;;;5022971;28;19924;-58
2022/04/13 02:34:55;;;;;;;;;;;18.40;53.40;;;;;;5015225;28;19913;-58
2022/04/13 02:37:20;;;;;;;;;;;18.40;53.40;;;;;;5023553;28;19976;-57
2022/04/13 02:39:46;;;;;;;;;;;18.40;53.40;;;;;;5015215;28;20374;-57
2022/04/13 02:44:43;;;;;;;;;;;18.40;53.40;;;;;;5020633;28;19925;-54
2022/04/13 02:47:12;;;;;;;;;;;18.40;53.40;;;;;;5023479;28;19913;-55
2022/04/13 02:49:37;;;;;;;;;;;18.40;53.40;;;;;;5022218;28;19924;-47
2022/04/13 02:52:03;;;;;;;;;;;18.40;53.40;;;;;;5023936;28;19913;-54
2022/04/13 02:54:29;;;;;;;;;;;18.40;53.40;;;;;;5023625;28;19917;-53
2022/04/13 02:56:54;;;;;;;;;;;18.40;53.40;;;;;;5023391;28;20000;-53
2022/04/13 02:59:19;;;;;;;;;;;18.40;53.40;;;;;;5024105;28;19982;-54
2022/04/13 03:01:46;;;;;;;;;;;18.40;53.40;;;;;;5023829;28;20298;-53
2022/04/13 03:04:13;;;;;;;;;;;18.40;53.30;;;;;;5024706;28;19913;-54
2022/04/13 03:06:38;;;;;;;;;;;18.40;53.40;;;;;;5024863;28;19917;-55
2022/04/13 03:09:04;;;;;;;;;;;18.40;53.40;;;;;;5025271;28;19967;-54
2022/04/13 03:11:29;;;;;;;;;;;18.40;53.40;;;;;;5025624;28;19913;-52
2022/04/13 03:13:55;;;;;;;;;;;18.40;53.40;;;;;;5025049;28;20297;-56
2022/04/13 03:16:20;;;;;;;;;;;18.40;53.30;;;;;;5024517;28;20433;-55
2022/04/13 03:18:46;;;;;;;;;;;18.40;53.30;;;;;;5024271;28;19995;-54
2022/04/13 03:21:11;;;;;;;;;;;18.40;53.40;;;;;;5024507;28;20405;-55
2022/04/13 03:23:37;;;;;;;;;;;18.40;53.40;;;;;;5024650;28;19921;-56
2022/04/13 03:26:02;;;;;;;;;;;18.40;53.40;;;;;;5023320;28;19913;-55
2022/04/13 03:28:27;;;;;;;;;;;18.40;53.40;;;;;;5023124;28;20437;-56
2022/04/13 03:30:53;;;;;;;;;;;18.40;53.30;;;;;;5023293;28;19920;-52
2022/04/13 03:33:19;;;;;;;;;;;18.40;53.30;;;;;;5021620;28;19917;-55
2022/04/13 03:35:44;;;;;;;;;;;18.40;53.30;;;;;;5021404;28;19971;-53
2022/04/13 03:38:10;;;;;;;;;;;18.40;53.30;;;;;;5029786;28;19914;-56
2022/04/13 03:40:35;;;;;;;;;;;18.40;53.30;;;;;;5022842;28;19924;-56
2022/04/13 03:43:01;;;;;;;;;;;18.40;53.30;;;;;;5022955;28;20542;-55
2022/04/13 03:45:26;;;;;;;;;;;18.40;53.30;;;;;;5023102;28;19913;-56
2022/04/13 03:47:51;;;;;;;;;;;18.40;53.30;;;;;;5022807;28;19920;-54
2022/04/13 03:50:17;;;;;;;;;;;18.40;53.30;;;;;;5022352;28;19960;-55
2022/04/13 03:52:42;;;;;;;;;;;18.40;53.30;;;;;;5022833;28;20393;-54
2022/04/13 03:55:08;;;;;;;;;;;18.40;53.30;;;;;;5023204;28;19917;-56
2022/04/13 03:57:34;;;;;;;;;;;18.40;53.30;;;;;;5022801;28;19917;-54
2022/04/13 03:59:59;;;;;;;;;;;18.40;53.30;;;;;;5022130;28;19917;-54
2022/04/13 04:02:25;;;;;;;;;;;18.40;53.30;;;;;;5020947;28;19913;-52
2022/04/13 04:04:50;;;;;;;;;;;18.40;53.30;;;;;;5023024;28;19917;-54
2022/04/13 04:07:16;;;;;;;;;;;18.40;54.00;;;;;;5021639;28;20369;-55
2022/04/13 04:09:42;;;;;;;;;;;18.40;53.30;;;;;;5020675;28;19927;-53
2022/04/13 04:12:08;;;;;;;;;;;18.40;53.30;;;;;;5022713;28;20392;-54
2022/04/13 04:14:33;;;;;;;;;;;18.40;53.40;;;;;;5022220;28;20381;-54
2022/04/13 04:16:59;;;;;;;;;;;18.40;53.30;;;;;;5022927;28;19945;-54
2022/04/13 04:19:24;;;;;;;;;;;18.40;53.20;;;;;;5023009;28;19913;-54
2022/04/13 04:21:50;;;;;;;;;;;18.40;53.40;;;;;;5023728;28;20389;-55
2022/04/13 04:24:15;;;;;;;;;;;18.40;53.30;;;;;;5023422;28;20581;-54
2022/04/13 04:26:42;;;;;;;;;;;18.40;53.30;;;;;;5022417;28;19971;-56
2022/04/13 04:29:08;;;;;;;;;;;18.40;53.30;;;;;;5020786;28;19940;-54
2022/04/13 04:31:53;;;;;;;;;;;18.40;53.30;;;;;;5022375;28;20382;-54
2022/04/13 04:34:19;;;;;;;;;;;18.40;53.30;;;;;;5022743;28;19917;-55
2022/04/13 04:36:45;;;;;;;;;;;18.40;53.30;;;;;;5026596;28;19913;-53
2022/04/13 04:39:11;;;;;;;;;;;18.40;53.30;;;;;;5025831;28;19940;-55
2022/04/13 04:41:36;;;;;;;;;;;18.40;53.30;;;;;;5026468;28;19996;-53
2022/04/13 04:44:02;;;;;;;;;;;18.40;53.30;;;;;;5025961;28;19929;-54
2022/04/13 04:46:27;;;;;;;;;;;18.40;53.30;;;;;;5020626;28;20004;-54
2022/04/13 04:48:52;;;;;;;;;;;18.40;53.40;;;;;;5025482;28;20461;-53
2022/04/13 04:51:18;;;;;;;;;;;18.40;53.30;;;;;;5025690;28;19963;-54
2022/04/13 04:53:44;;;;;;;;;;;18.40;53.30;;;;;;5025956;28;20047;-55
2022/04/13 04:56:09;;;;;;;;;;;18.40;53.30;;;;;;5025764;28;20134;-52
2022/04/13 04:58:35;;;;;;;;;;;18.40;53.40;;;;;;5026194;28;20691;-53
2022/04/13 05:01:00;;;;;;;;;;;18.40;53.20;;;;;;5025676;28;19917;-54
2022/04/13 05:03:26;;;;;;;;;;;18.40;53.30;;;;;;5025420;28;19914;-55
2022/04/13 05:05:51;;;;;;;;;;;18.40;53.30;;;;;;5025830;28;20441;-54
2022/04/13 05:08:17;;;;;;;;;;;18.40;53.20;;;;;;5025317;28;19925;-55
2022/04/13 05:10:43;;;;;;;;;;;18.40;53.20;;;;;;5025828;28;19920;-56
2022/04/13 05:13:09;;;;;;;;;;;18.40;53.30;;;;;;5026668;28;19913;-47
2022/04/13 05:15:34;;;;;;;;;;;18.40;53.20;;;;;;5025977;28;19917;-54
2022/04/13 05:18:00;;;;;;;;;;;18.40;53.30;;;;;;5024733;28;20367;-54
2022/04/13 05:20:25;;;;;;;;;;;18.40;53.30;;;;;;5024093;28;20009;-49
2022/04/13 05:22:50;;;;;;;;;;;18.40;53.40;;;;;;5021041;28;20401;-56
2022/04/13 05:25:16;;;;;;;;;;;18.50;53.50;;;;;;5022955;28;19913;-52
2022/04/13 05:27:42;;;;;;;;;;;18.40;53.60;;;;;;5023038;28;19917;-53
2022/04/13 05:30:07;;;;;;;;;;;18.40;53.60;;;;;;5024744;28;19925;-55
2022/04/13 05:32:44;;;;;;;;;;;18.40;53.60;;;;;;5023070;28;19913;-55
2022/04/13 05:35:09;;;;;;;;;;;18.40;53.70;;;;;;5012585;28;21336;-54
2022/04/13 05:37:35;;;;;;;;;;;18.40;53.80;;;;;;5025574;28;19924;-56
2022/04/13 05:40:00;;;;;;;;;;;18.40;54.00;;;;;;5024853;28;19913;-53
2022/04/13 05:42:26;;;;;;;;;;;18.40;54.00;;;;;;5025045;28;19931;-56
2022/04/13 05:44:51;;;;;;;;;;;18.40;54.00;;;;;;5025306;28;19917;-55
2022/04/13 05:47:17;;;;;;;;;;;18.50;54.30;;;;;;5023745;28;20566;-53
2022/04/13 05:49:42;;;;;;;;;;;18.50;54.40;;;;;;5024509;28;19940;-54
2022/04/13 05:52:08;;;;;;;;;;;18.50;54.40;;;;;;5024900;28;19917;-53
2022/04/13 05:54:33;;;;;;;;;;;18.50;54.30;;;;;;5025130;28;19913;-53
2022/04/13 05:56:59;;;;;;;;;;;18.50;54.40;;;;;;5024908;28;19932;-52
2022/04/13 05:59:24;;;;;;;;;;;18.40;54.30;;;;;;5023477;28;19921;-55
2022/04/13 06:01:50;;;;;;;;;;;18.50;54.20;;;;;;5026358;28;19917;-54
2022/04/13 06:04:16;;;;;;;;;;;18.50;54.20;;;;;;5026541;28;20550;-55
2022/04/13 06:06:42;;;;;;;;;;;18.50;54.30;;;;;;5026336;28;19956;-54
2022/04/13 06:09:07;;;;;;;;;;;18.50;54.20;;;;;;5025729;28;19917;-53
2022/04/13 06:11:32;;;;;;;;;;;18.50;54.20;;;;;;5025819;28;19971;-54
2022/04/13 06:13:58;;;;;;;;;;;18.50;54.60;;;;;;5026201;28;20401;-55
2022/04/13 06:16:23;;;;;;;;;;;18.50;54.40;;;;;;5025449;28;19917;-54
2022/04/13 06:18:49;;;;;;;;;;;18.50;54.50;;;;;;5025421;28;20309;-54
2022/04/13 06:21:14;;;;;;;;;;;18.50;54.50;;;;;;5025609;28;19921;-54
2022/04/13 06:23:40;;;;;;;;;;;18.50;54.50;;;;;;5026025;28;20400;-51
2022/04/13 06:26:05;;;;;;;;;;;18.50;54.50;;;;;;5026121;28;21613;-54
2022/04/13 06:28:31;;;;;;;;;;;18.50;54.50;;;;;;5024958;28;19917;-54
2022/04/13 06:30:58;;;;;;;;;;;18.50;54.50;;;;;;5025826;28;19917;-53
2022/04/13 06:33:23;;;;;;;;;;;18.50;54.40;;;;;;5025997;28;20345;-55
2022/04/13 06:35:48;;;;;;;;;;;18.50;54.50;;;;;;5025912;28;20169;-54
2022/04/13 06:38:14;;;;;;;;;;;18.50;54.50;;;;;;5025862;28;20318;-55
2022/04/13 06:40:39;;;;;;;;;;;18.50;54.50;;;;;;5025261;28;19962;-50
2022/04/13 06:43:05;;;;;;;;;;;18.50;54.50;;;;;;5025330;28;19922;-55
2022/04/13 06:45:30;;;;;;;;;;;18.50;54.50;;;;;;5025711;28;19913;-55
2022/04/13 06:47:56;;;;;;;;;;;18.50;54.50;;;;;;5025232;28;19913;-54
2022/04/13 06:50:21;;;;;;;;;;;18.50;54.50;;;;;;5024856;28;19918;-53
2022/04/13 06:52:47;;;;;;;;;;;18.50;54.40;;;;;;5025039;28;19913;-55
2022/04/13 06:55:12;;;;;;;;;;;18.50;54.40;;;;;;5025712;28;20634;-50
2022/04/13 06:57:38;;;;;;;;;;;18.60;54.40;;;;;;5024838;28;19920;-54
2022/04/13 07:00:04;;;;;;;;;;;18.50;54.50;;;;;;5025266;28;19937;-52
2022/04/13 07:02:30;;;;;;;;;;;18.50;54.50;;;;;;5025507;28;20070;-53
2022/04/13 07:04:55;;;;;;;;;;;18.50;54.50;;;;;;5025267;28;20593;-55
2022/04/13 07:07:21;;;;;;;;;;;18.60;54.50;;;;;;5025469;28;19913;-54
2022/04/13 07:09:46;;;;;;;;;;;18.60;54.30;;;;;;5023488;28;19917;-53
2022/04/13 07:12:12;;;;;;;;;;;18.60;54.40;;;;;;5025332;28;20382;-55
2022/04/13 07:14:37;;;;;;;;;;;18.60;54.40;;;;;;5025662;28;19913;-55
2022/04/13 07:17:02;;;;;;;;;;;18.60;54.50;;;;;;5024408;28;19966;-55
2022/04/13 07:19:28;;;;;;;;;;;18.50;54.40;;;;;;5022632;28;19917;-55
2022/04/13 07:21:53;;;;;;;;;;;18.50;54.50;;;;;;5024687;28;20378;-53
2022/04/13 07:24:19;;;;;;;;;;;18.50;54.40;;;;;;5024771;28;19913;-51
2022/04/13 07:26:44;;;;;;;;;;;18.50;54.40;;;;;;5025109;28;19914;-55
2022/04/13 07:29:10;;;;;;;;;;;18.50;54.50;;;;;;5024461;28;20340;-54
2022/04/13 07:31:35;;;;;;;;;;;18.60;54.50;;;;;;5024258;28;19921;-55
2022/04/13 07:34:02;;;;;;;;;;;18.60;54.60;;;;;;5024507;28;19975;-56
2022/04/13 07:36:28;;;;;;;;;;;18.60;54.60;;;;;;5024365;28;19967;-56
2022/04/13 07:38:53;;;;;;;;;;;18.50;54.40;;;;;;5024310;28;19917;-55
2022/04/13 07:41:19;;;;;;;;;;;18.50;54.50;;;;;;5023939;28;19917;-55
2022/04/13 07:43:44;;;;;;;;;;;18.60;54.60;;;;;;5024192;28;19927;-56
2022/04/13 07:46:10;;;;;;;;;;;18.50;54.50;;;;;;5025008;28;19921;-54
2022/04/13 07:48:35;;;;;;;;;;;18.50;54.60;;;;;;5023397;28;20513;-56
2022/04/13 07:51:01;;;;;;;;;;;18.60;54.70;;;;;;5024263;28;19917;-55
2022/04/13 07:53:26;;;;;;;;;;;18.60;54.60;;;;;;5024130;28;19913;-54
2022/04/13 07:55:51;;;;;;;;;;;18.60;54.60;;;;;;5024247;28;19920;-56
2022/04/13 07:58:17;;;;;;;;;;;18.60;54.60;;;;;;5023881;28;20433;-54
2022/04/13 08:00:42;;;;;;;;;;;18.60;54.50;;;;;;5023522;28;19913;-54
2022/04/13 08:03:08;;;;;;;;;;;18.60;54.50;;;;;;5024414;28;20080;-55
2022/04/13 08:05:34;;;;;;;;;;;18.60;54.50;;;;;;5023986;28;20000;-52
2022/04/13 08:07:59;;;;;;;;;;;18.60;54.50;;;;;;5024161;28;19913;-55
2022/04/13 08:10:24;;;;;;;;;;;18.60;54.30;;;;;;5025988;28;19913;-53
2022/04/13 08:12:50;;;;;;;;;;;18.60;54.90;;;;;;5028282;28;20412;-53
2022/04/13 08:15:16;;;;;;;;;;;18.60;54.30;;;;;;5028551;28;20377;-54
2022/04/13 08:17:41;;;;;;;;;;;18.50;54.20;;;;;;5028051;28;19914;-54
2022/04/13 08:20:08;;;;;;;;;;;18.50;54.60;;;;;;5028451;28;20436;-54
2022/04/13 08:22:33;;;;;;;;;;;18.60;54.40;;;;;;5028373;28;19920;-55
2022/04/13 08:24:58;;;;;;;;;;;18.60;54.30;;;;;;5028764;28;19917;-55
2022/04/13 08:27:24;;;;;;;;;;;18.60;54.40;;;;;;5027721;28;19913;-51
2022/04/13 08:29:49;;;;;;;;;;;18.60;54.30;;;;;;5028297;28;20019;-55
2022/04/13 08:32:15;;;;;;;;;;;18.60;54.40;;;;;;5028219;28;20550;-54
2022/04/13 08:34:41;;;;;;;;;;;18.60;54.40;;;;;;5028067;28;19913;-54
2022/04/13 08:37:06;;;;;;;;;;;18.60;54.30;;;;;;5028151;28;20366;-54
2022/04/13 08:39:32;;;;;;;;;;;18.60;54.30;;;;;;5027410;28;19996;-57
2022/04/13 08:41:58;;;;;;;;;;;18.60;54.20;;;;;;5027093;28;19913;-54
2022/04/13 08:44:28;;;;;;;;;;;18.60;54.20;;;;;;5037007;22;20446;-56
2022/04/13 08:46:55;;;;;;;;;;;18.60;54.20;;;;;;5026923;28;19936;-57
2022/04/13 08:49:21;;;;;;;;;;;18.60;54.10;;;;;;5027307;28;19918;-54
2022/04/13 08:51:46;;;;;;;;;;;18.60;54.20;;;;;;5027319;28;19983;-55
2022/04/13 08:54:19;;;;;;;;;;;18.60;54.10;;;;;;5027669;28;19913;-55
2022/04/13 08:56:47;;;;;;;;;;;18.60;54.10;;;;;;5027945;28;19917;-56
2022/04/13 08:59:27;;;;;;;;;;;18.60;54.00;;;;;;5027410;28;20279;-56
2022/04/13 09:01:59;;;;;;;;;;;18.60;54.10;;;;;;5028050;28;19919;-57
2022/04/13 09:04:26;;;;;;;;;;;18.60;54.00;;;;;;5027527;28;20012;-57
2022/04/13 09:06:51;;;;;;;;;;;18.60;54.00;;;;;;5027665;28;19914;-57
2022/04/13 09:09:20;;;;;;;;;;;18.60;54.00;;;;;;5026957;28;19948;-56
2022/04/13 09:11:45;;;;;;;;;;;18.60;54.00;;;;;;5026052;28;19974;-58
2022/04/13 09:14:11;;;;;;;;;;;18.60;54.10;;;;;;5025783;28;20345;-49
2022/04/13 09:16:36;;;;;;;;;;;18.60;54.20;;;;;;5027456;28;19944;-57
2022/04/13 09:19:02;;;;;;;;;;;18.60;54.20;;;;;;5024240;28;19923;-56
2022/04/13 09:21:27;;;;;;;;;;;18.60;54.10;;;;;;5026316;28;19913;-56
2022/04/13 09:23:53;;;;;;;;;;;18.60;54.10;;;;;;5026936;28;19920;-54
2022/04/13 09:26:18;;;;;;;;;;;18.60;54.20;;;;;;5026560;28;20271;-57
2022/04/13 09:28:44;;;;;;;;;;;18.70;54.10;;;;;;5025935;28;19921;-56
2022/04/13 09:31:09;;;;;;;;;;;18.60;53.90;;;;;;5026875;28;19924;-57
2022/04/13 09:33:35;;;;;;;;;;;18.60;53.90;;;;;;5026874;28;20081;-57
2022/04/13 09:36:00;;;;;;;;;;;18.60;53.90;;;;;;5008878;28;22055;-57
2022/04/13 09:38:26;;;;;;;;;;;18.60;53.70;;;;;;5026397;28;19920;-58
2022/04/13 09:40:52;;;;;;;;;;;18.60;53.90;;;;;;5026175;28;19921;-55
2022/04/13 09:43:18;;;;;;;;;;;18.90;52.80;;;;;;5026179;28;19920;-57
2022/04/13 09:45:44;;;;;;;;;;;19.10;52.00;;;;;;5024410;28;19959;-56
2022/04/13 09:48:10;;;;;;;;;;;19.30;50.50;;;;;;5026328;28;19936;-56
2022/04/13 09:50:37;;;;;;;;;;;19.40;50.00;;;;;;5025649;28;20555;-55
2022/04/13 09:53:06;;;;;;;;;;;19.40;49.90;;;;;;5026227;28;19967;-55
2022/04/13 09:55:41;;;;;;;;;;;19.50;49.80;;;;;;5008837;28;19979;-55
2022/04/13 09:58:07;;;;;;;;;;;19.50;49.80;;;;;;5026517;28;19917;-56
2022/04/13 10:00:33;;;;;;;;;;;19.50;49.70;;;;;;5010913;28;19948;-58
2022/04/13 10:03:06;;;;;;;;;;;19.50;49.70;;;;;;5026564;28;19913;-53
2022/04/13 10:05:31;;;;;;;;;;;19.50;49.70;;;;;;5024986;28;19925;-54
2022/04/13 10:08:04;;;;;;;;;;;19.50;49.70;;;;;;5026316;28;20433;-55
2022/04/13 10:10:29;;;;;;;;;;;19.50;49.70;;;;;;5026096;28;20305;-56
2022/04/13 10:12:55;;;;;;;;;;;19.60;49.70;;;;;;5024668;28;19959;-57
2022/04/13 10:15:20;;;;;;;;;;;19.60;49.70;;;;;;5026147;28;19914;-55
2022/04/13 10:17:45;;;;;;;;;;;19.60;49.70;;;;;;5026012;28;19913;-55
2022/04/13 10:20:11;;;;;;;;;;;19.60;51.10;;;;;;5024893;28;19939;-57
2022/04/13 10:22:55;;;;;;;;;;;19.70;51.20;;;;;;5025233;28;20756;-54
2022/04/13 10:25:25;;;;;;;;;;;19.50;51.20;;;;;;5024403;28;19995;-57
2022/04/13 10:27:57;;;;;;;;;;;19.40;52.10;;;;;;5025760;28;19920;-56
2022/04/13 10:30:29;;;;;;;;;;;19.30;52.60;;;;;;5025404;28;19917;-55
2022/04/13 10:33:24;;;;;;;;;;;19.20;53.00;;;;;;5025180;28;20004;-54
2022/04/13 10:35:50;;;;;;;;;;;19.10;53.30;;;;;;5012449;28;19917;-56
2022/04/13 10:38:15;;;;;;;;;;;19.10;53.20;;;;;;5026011;28;20564;-56
2022/04/13 10:40:41;;;;;;;;;;;19.10;53.40;;;;;;5025783;28;19921;-56
2022/04/13 10:43:07;;;;;;;;;;;19.00;53.40;;;;;;5023762;28;19917;-56
2022/04/13 10:45:35;;;;;;;;;;;19.00;53.50;;;;;;5022602;28;20405;-54
2022/04/13 10:48:01;;;;;;;;;;;19.00;53.50;;;;;;5022139;28;19968;-56
2022/04/13 10:50:30;;;;;;;;;;;19.00;53.80;;;;;;5023317;28;20397;-57
2022/04/13 10:52:58;;;;;;;;;;;19.00;53.60;;;;;;5024191;28;19913;-57
2022/04/13 10:55:24;;;;;;;;;;;19.00;53.60;;;;;;5023827;28;20008;-56
2022/04/13 10:57:50;;;;;;;;;;;19.00;53.80;;;;;;5023360;28;20068;-56
2022/04/13 11:00:16;;;;;;;;;;;19.00;53.70;;;;;;5023534;28;19913;-56
2022/04/13 11:02:54;;;;;;;;;;;19.00;53.90;;;;;;5024758;28;19919;-55
2022/04/13 11:05:25;;;;;;;;;;;19.00;53.90;;;;;;5024146;28;20290;-55
2022/04/13 11:08:09;;;;;;;;;;;18.90;53.80;;;;;;5024361;28;19975;-55
2022/04/13 11:10:35;;;;;;;;;;;19.00;53.90;;;;;;5023658;28;19917;-56
2022/04/13 11:13:00;;;;;;;;;;;18.90;53.90;;;;;;5024094;28;20020;-58
2022/04/13 11:15:43;;;;;;;;;;;19.00;54.00;;;;;;5024169;28;19928;-55
2022/04/13 11:18:09;;;;;;;;;;;19.00;54.10;;;;;;5023657;28;19955;-55
2022/04/13 11:20:35;;;;;;;;;;;19.00;54.00;;;;;;5023492;28;19914;-56
2022/04/13 11:23:07;;;;;;;;;;;19.00;54.30;;;;;;5023772;28;19920;-56
2022/04/13 11:25:43;;;;;;;;;;;19.00;54.00;;;;;;5006395;28;19917;-56
2022/04/13 11:28:08;;;;;;;;;;;19.00;54.10;;;;;;5023729;28;19917;-56
2022/04/13 11:30:53;;;;;;;;;;;19.00;54.30;;;;;;5005229;28;19920;-55
2022/04/13 11:33:19;;;;;;;;;;;19.00;54.20;;;;;;5023030;28;19920;-56
2022/04/13 11:35:45;;;;;;;;;;;19.00;54.20;;;;;;5023772;28;19913;-56
2022/04/13 11:38:10;;;;;;;;;;;19.00;54.30;;;;;;5024246;28;20008;-56
2022/04/13 11:40:35;;;;;;;;;;;19.00;54.50;;;;;;5023193;28;19917;-53
2022/04/13 11:43:01;;;;;;;;;;;19.00;54.30;;;;;;5022036;28;19939;-56
2022/04/13 11:45:27;;;;;;;;;;;18.90;54.30;;;;;;4962957;28;1705974;-57
2022/04/13 11:47:52;;;;;;;;;;;19.00;54.60;;;;;;5021848;28;19948;-55
2022/04/13 11:50:18;;;;;;;;;;;19.00;54.50;;;;;;5024145;28;20435;-55
2022/04/13 11:52:45;;;;;;;;;;;19.00;54.60;;;;;;5024531;28;20600;-55
2022/04/13 11:55:15;;;;;;;;;;;19.00;54.60;;;;;;5024217;28;20730;-57
2022/04/13 11:57:59;;;;;;;;;;;19.00;54.30;;;;;;5022372;28;20429;-57
2022/04/13 12:00:41;;;;;;;;;;;19.00;54.50;;;;;;5023955;28;20376;-54
2022/04/13 12:03:09;;;;;;;;;;;19.00;54.50;;;;;;5024321;28;19940;-56
2022/04/13 12:05:35;;;;;;;;;;;19.00;54.30;;;;;;5023872;28;19955;-56
2022/04/13 12:08:01;;;;;;;;;;;19.00;54.10;;;;;;5024005;28;19913;-57
2022/04/13 12:10:35;;;;;;;;;;;19.00;54.30;;;;;;5024142;28;20425;-56
2022/04/13 12:13:03;;;;;;;;;;;19.00;54.40;;;;;;5024421;28;19935;-54
2022/04/13 12:15:39;;;;;;;;;;;19.00;54.40;;;;;;5007237;28;19913;-56
2022/04/13 12:18:08;;;;;;;;;;;19.00;54.40;;;;;;5005920;28;20110;-57
2022/04/13 12:20:34;;;;;;;;;;;19.00;54.50;;;;;;5023732;28;20008;-58
2022/04/13 12:23:13;;;;;;;;;;;19.00;54.50;;;;;;5023765;28;20438;-57
2022/04/13 12:25:42;;;;;;;;;;;19.00;54.50;;;;;;5023862;28;20842;-57
2022/04/13 12:28:07;;;;;;;;;;;19.00;54.70;;;;;;5023457;28;19917;-56
2022/04/13 12:30:32;;;;;;;;;;;19.00;54.50;;;;;;5023587;28;19933;-57
2022/04/13 12:32:58;;;;;;;;;;;19.00;54.70;;;;;;5024178;28;19913;-58
2022/04/13 12:35:23;;;;;;;;;;;19.00;54.70;;;;;;5006832;28;19963;-57
2022/04/13 12:37:52;;;;;;;;;;;19.00;54.60;;;;;;5023769;28;19914;-57
2022/04/13 12:40:28;;;;;;;;;;;19.00;54.40;;;;;;5023606;28;19919;-57
2022/04/13 12:42:54;;;;;;;;;;;19.00;54.50;;;;;;5023622;28;19913;-55
2022/04/13 12:45:26;;;;;;;;;;;19.00;54.70;;;;;;5023650;28;19928;-55
2022/04/13 12:47:52;;;;;;;;;;;19.00;54.70;;;;;;5023907;28;19913;-56
2022/04/13 12:50:17;;;;;;;;;;;19.00;54.70;;;;;;5024026;28;19932;-54
2022/04/13 12:52:43;;;;;;;;;;;19.10;54.50;;;;;;5023741;28;20332;-50
2022/04/13 12:55:08;;;;;;;;;;;19.00;54.60;;;;;;5024038;28;19913;-58
2022/04/13 12:57:34;;;;;;;;;;;19.10;54.50;;;;;;5027291;28;19913;-57
2022/04/13 12:59:59;;;;;;;;;;;19.10;54.70;;;;;;5025821;28;19928;-56
2022/04/13 13:02:24;;;;;;;;;;;19.10;54.60;;;;;;5027653;28;19913;-56
2022/04/13 13:04:51;;;;;;;;;;;19.10;54.70;;;;;;5027429;28;20008;-54
2022/04/13 13:07:16;;;;;;;;;;;19.10;54.60;;;;;;5026954;28;19949;-55
2022/04/13 13:09:50;;;;;;;;;;;19.00;54.60;;;;;;5025942;28;19917;-56
2022/04/13 13:12:17;;;;;;;;;;;19.10;54.80;;;;;;5026727;28;20408;-57
2022/04/13 13:14:46;;;;;;;;;;;19.10;54.80;;;;;;5027514;28;20365;-55
2022/04/13 13:17:18;;;;;;;;;;;19.10;54.70;;;;;;5027061;28;20278;-58
2022/04/13 13:19:45;;;;;;;;;;;19.10;54.80;;;;;;5026321;28;19919;-56
2022/04/13 13:22:15;;;;;;;;;;;19.10;54.90;;;;;;5027357;28;20333;-58
2022/04/13 13:24:44;;;;;;;;;;;19.10;54.80;;;;;;5026957;28;19917;-56
2022/04/13 13:27:09;;;;;;;;;;;19.10;54.80;;;;;;5026596;28;19913;-57
2022/04/13 13:29:41;;;;;;;;;;;19.10;54.80;;;;;;5026069;28;19940;-56
2022/04/13 13:32:13;;;;;;;;;;;19.10;54.90;;;;;;5026249;28;20003;-55
2022/04/13 13:34:38;;;;;;;;;;;19.10;54.80;;;;;;5008563;28;20730;-56
2022/04/13 13:37:03;;;;;;;;;;;19.10;55.40;;;;;;5025951;28;20221;-56
2022/04/13 13:39:29;;;;;;;;;;;19.10;54.70;;;;;;5026001;28;19937;-58
2022/04/13 13:42:02;;;;;;;;;;;19.10;54.80;;;;;;5025940;28;19997;-57
2022/04/13 13:44:28;;;;;;;;;;;19.10;54.80;;;;;;5026146;28;19996;-57
2022/04/13 13:46:53;;;;;;;;;;;19.10;54.80;;;;;;5026553;28;19940;-56
2022/04/13 13:49:18;;;;;;;;;;;19.10;54.80;;;;;;5026105;28;19917;-56
2022/04/13 13:51:48;;;;;;;;;;;19.10;54.80;;;;;;5024761;28;19962;-56
2022/04/13 13:54:13;;;;;;;;;;;19.10;54.70;;;;;;5025598;28;20398;-53
2022/04/13 13:56:39;;;;;;;;;;;19.10;54.70;;;;;;5008618;28;20004;-57
2022/04/13 13:59:04;;;;;;;;;;;19.10;54.80;;;;;;5025636;28;20313;-55
2022/04/13 14:01:30;;;;;;;;;;;19.10;54.60;;;;;;5026387;28;19920;-58
2022/04/13 14:03:55;;;;;;;;;;;19.10;54.60;;;;;;5025772;28;19920;-56
2022/04/13 14:06:21;;;;;;;;;;;19.10;54.50;;;;;;5025414;28;20303;-55
2022/04/13 14:08:49;;;;;;;;;;;19.10;54.60;;;;;;5024351;28;19921;-57
2022/04/13 14:11:14;;;;;;;;;;;19.10;54.80;;;;;;5025975;28;19920;-56
2022/04/13 14:13:40;;;;;;;;;;;19.20;54.90;;;;;;5026238;28;20298;-55
2022/04/13 14:16:05;;;;;;;;;;;19.20;54.60;;;;;;5025904;28;19917;-53